Time;durP1;ratioP1;P1;durP2;ratioP2;P2;SDS_P1;SDS_P2;PMS_P1;PMS_P2;Temp;Humidity;BMP_temperature;BMP_pressure;BME280_temperature;BME280_humidity;BME280_pressure;Samples;Min_cycle;Max_cycle;Signal;HPM_P1;HPM_P2
2022/06/29 00:00:57;;;;;;;8.48;6.28;;;;;;;;;;5035089;28;20104;-76
2022/06/29 00:03:23;;;;;;;9.77;5.90;;;;;;;;;;5035256;28;20034;-77
2022/06/29 00:05:49;;;;;;;8.60;6.07;;;;;;;;;;5034835;28;20049;-77
2022/06/29 00:08:17;;;;;;;8.70;6.30;;;;;;;;;;5034809;28;20040;-76
2022/06/29 00:10:43;;;;;;;6.50;5.80;;;;;;;;;;5034891;28;20013;-76
2022/06/29 00:13:09;;;;;;;6.57;5.90;;;;;;;;;;5034740;28;20032;-74
2022/06/29 00:15:35;;;;;;;8.77;7.20;;;;;;;;;;5033882;28;20079;-79
2022/06/29 00:18:01;;;;;;;9.40;6.30;;;;;;;;;;5034703;28;20033;-79
2022/06/29 00:20:27;;;;;;;9.38;6.53;;;;;;;;;;5034733;28;20024;-79
2022/06/29 00:22:53;;;;;;;10.25;6.28;;;;;;;;;;5034568;28;20029;-68
2022/06/29 00:25:19;;;;;;;10.38;7.68;;;;;;;;;;5034536;28;20025;-79
2022/06/29 00:27:45;;;;;;;10.52;7.32;;;;;;;;;;5034212;28;20025;-72
2022/06/29 00:30:12;;;;;;;6.95;6.13;;;;;;;;;;5034684;28;20384;-78
2022/06/29 00:32:38;;;;;;;10.40;6.18;;;;;;;;;;5034756;28;20039;-76
2022/06/29 00:35:05;;;;;;;7.18;6.50;;;;;;;;;;5034357;28;20032;-77
2022/06/29 00:37:31;;;;;;;7.82;6.68;;;;;;;;;;5034405;28;20029;-76
2022/06/29 00:39:57;;;;;;;7.25;6.55;;;;;;;;;;5034345;28;20017;-79
2022/06/29 00:42:23;;;;;;;6.45;5.85;;;;;;;;;;5034120;28;20028;-79
2022/06/29 00:44:49;;;;;;;7.47;6.60;;;;;;;;;;5034232;28;20026;-69
2022/06/29 00:47:15;;;;;;;9.32;6.25;;;;;;;;;;5034038;28;20108;-78
2022/06/29 00:49:42;;;;;;;7.35;6.65;;;;;;;;;;5034066;28;20434;-77
2022/06/29 00:52:09;;;;;;;7.63;6.75;;;;;;;;;;5034163;28;20116;-79
2022/06/29 00:54:41;;;;;;;9.77;7.20;;;;;;;;;;5034113;28;20057;-68
2022/06/29 00:57:09;;;;;;;8.02;6.55;;;;;;;;;;5033927;28;20399;-80
2022/06/29 00:59:44;;;;;;;7.82;7.03;;;;;;;;;;5033893;28;20025;-69
2022/06/29 01:02:10;;;;;;;8.10;6.28;;;;;;;;;;5033921;28;20031;-69
2022/06/29 01:04:37;;;;;;;8.90;6.60;;;;;;;;;;5033730;28;20421;-78
2022/06/29 01:07:03;;;;;;;8.77;6.65;;;;;;;;;;5033981;28;20435;-79
2022/06/29 01:09:30;;;;;;;7.70;6.45;;;;;;;;;;5033723;28;20052;-79
2022/06/29 01:11:56;;;;;;;7.53;6.53;;;;;;;;;;5033606;28;20021;-79
2022/06/29 01:14:22;;;;;;;10.98;6.68;;;;;;;;;;5033891;28;20033;-69
2022/06/29 01:16:48;;;;;;;8.27;6.32;;;;;;;;;;5033850;28;20021;-79
2022/06/29 01:19:14;;;;;;;7.72;6.07;;;;;;;;;;5033560;28;20054;-79
2022/06/29 01:21:42;;;;;;;7.85;6.28;;;;;;;;;;5033407;28;20111;-74
2022/06/29 01:24:08;;;;;;;9.25;6.95;;;;;;;;;;5033517;28;20100;-79
2022/06/29 01:26:34;;;;;;;7.25;6.40;;;;;;;;;;5033263;28;20028;-77
2022/06/29 01:29:00;;;;;;;7.75;5.68;;;;;;;;;;5033347;28;20041;-80
2022/06/29 01:31:26;;;;;;;8.65;6.22;;;;;;;;;;5033405;28;20029;-78
2022/06/29 01:33:52;;;;;;;6.88;6.18;;;;;;;;;;5033333;28;20048;-69
2022/06/29 01:36:18;;;;;;;8.40;6.50;;;;;;;;;;5033296;28;20018;-79
2022/06/29 01:38:45;;;;;;;8.45;6.47;;;;;;;;;;5033174;28;20032;-69
2022/06/29 01:41:11;;;;;;;6.90;6.20;;;;;;;;;;5033140;28;20100;-78
2022/06/29 01:43:41;;;;;;;8.07;6.55;;;;;;;;;;5033228;28;20029;-79
2022/06/29 01:46:07;;;;;;;7.47;6.63;;;;;;;;;;5033309;28;20388;-79
2022/06/29 01:48:34;;;;;;;9.77;7.15;;;;;;;;;;5033081;28;20040;-79
2022/06/29 01:51:00;;;;;;;9.35;7.35;;;;;;;;;;5033008;28;20029;-70
2022/06/29 01:53:26;;;;;;;11.27;7.63;;;;;;;;;;5033205;28;20029;-79
2022/06/29 01:55:52;;;;;;;8.23;7.45;;;;;;;;;;5033015;28;20380;-69
2022/06/29 01:58:19;;;;;;;10.38;8.43;;;;;;;;;;5033033;28;20472;-79
2022/06/29 02:00:45;;;;;;;14.95;8.60;;;;;;;;;;5033055;28;20033;-69
2022/06/29 02:03:11;;;;;;;10.43;8.23;;;;;;;;;;5033228;28;20033;-77
2022/06/29 02:05:37;;;;;;;8.32;7.53;;;;;;;;;;5032757;28;20050;-79
2022/06/29 02:08:03;;;;;;;9.60;8.27;;;;;;;;;;5032942;28;20025;-78
2022/06/29 02:10:30;;;;;;;9.90;6.80;;;;;;;;;;5033040;28;20018;-79
2022/06/29 02:12:56;;;;;;;9.90;7.30;;;;;;;;;;5033270;28;20086;-78
2022/06/29 02:15:23;;;;;;;7.90;6.97;;;;;;;;;;5032895;28;20032;-69
2022/06/29 02:17:50;;;;;;;10.25;7.15;;;;;;;;;;5014813;28;20514;-69
2022/06/29 02:20:16;;;;;;;7.97;6.75;;;;;;;;;;5032635;28;20018;-68
2022/06/29 02:22:42;;;;;;;8.68;7.40;;;;;;;;;;5032886;28;20033;-69
2022/06/29 02:25:08;;;;;;;11.52;6.97;;;;;;;;;;5032822;28;20017;-79
2022/06/29 02:27:38;;;;;;;9.50;7.60;;;;;;;;;;5032673;28;20028;-79
2022/06/29 02:30:05;;;;;;;9.32;8.05;;;;;;;;;;5032776;28;20034;-68
2022/06/29 02:35:15;;;;;;;12.48;8.30;;;;;;;;;;5032955;28;20084;-69
2022/06/29 02:37:41;;;;;;;12.35;7.32;;;;;;;;;;5034046;28;20023;-69
2022/06/29 02:40:07;;;;;;;9.73;7.85;;;;;;;;;;5036415;28;20044;-69
2022/06/29 02:42:33;;;;;;;8.80;6.65;;;;;;;;;;5036465;28;20029;-69
2022/06/29 02:45:00;;;;;;;8.82;8.00;;;;;;;;;;5036492;28;20025;-69
2022/06/29 02:47:27;;;;;;;9.77;7.95;;;;;;;;;;5036455;28;20040;-68
2022/06/29 02:49:53;;;;;;;9.23;7.63;;;;;;;;;;5036700;28;20021;-69
2022/06/29 02:52:19;;;;;;;10.05;7.53;;;;;;;;;;5036463;28;20476;-69
2022/06/29 02:54:45;;;;;;;9.15;6.95;;;;;;;;;;5036228;28;20442;-70
2022/06/29 02:57:11;;;;;;;10.55;7.35;;;;;;;;;;5036231;28;20025;-69
2022/06/29 02:59:37;;;;;;;7.93;7.13;;;;;;;;;;5036190;28;20048;-69
2022/06/29 03:02:04;;;;;;;7.15;6.45;;;;;;;;;;5035971;28;20472;-69
2022/06/29 03:04:30;;;;;;;9.70;7.40;;;;;;;;;;5036007;28;20502;-69
2022/06/29 03:06:56;;;;;;;10.27;8.25;;;;;;;;;;5035957;28;20033;-68
2022/06/29 03:09:22;;;;;;;11.52;7.00;;;;;;;;;;5035936;28;20045;-69
2022/06/29 03:11:48;;;;;;;15.07;7.70;;;;;;;;;;5035990;28;20026;-68
2022/06/29 03:14:14;;;;;;;9.10;7.10;;;;;;;;;;5035874;28;20072;-68
2022/06/29 03:16:40;;;;;;;7.05;6.35;;;;;;;;;;5035806;28;20489;-68
2022/06/29 03:19:06;;;;;;;8.93;7.15;;;;;;;;;;5035793;28;20043;-68
2022/06/29 03:21:32;;;;;;;11.15;7.75;;;;;;;;;;5035653;28;20030;-68
2022/06/29 03:23:58;;;;;;;8.15;7.35;;;;;;;;;;5035783;28;20476;-68
2022/06/29 03:26:24;;;;;;;12.73;7.25;;;;;;;;;;5035581;28;20045;-68
2022/06/29 03:28:52;;;;;;;10.45;7.30;;;;;;;;;;5035356;28;20038;-68
2022/06/29 03:31:19;;;;;;;10.05;8.45;;;614.80;2406.40;;;;;;5035808;28;20057;-71
2022/06/29 03:33:46;;;;;;;11.73;7.55;;;614.70;2406.40;;;;;;5035443;28;20104;-76
2022/06/29 03:36:12;;;;;;;10.27;7.75;;;614.60;2432.00;;;;;;5035377;28;20026;-69
2022/06/29 03:38:38;;;;;;;15.75;9.38;;;614.70;2406.40;;;;;;5035527;28;20026;-76
2022/06/29 03:41:04;;;;;;;13.73;9.23;;;614.70;2406.40;;;;;;5035378;28;20083;-75
2022/06/29 03:43:30;;;;;;;13.10;8.15;;;614.70;2406.40;;;;;;5035527;28;20079;-78
2022/06/29 03:45:56;;;;;;;13.10;8.02;;;614.60;2406.40;;;;;;5035676;28;20018;-77
2022/06/29 03:48:21;;;;;;;9.43;7.88;;;614.70;2432.00;;;;;;5034711;28;20033;-77
2022/06/29 03:50:47;;;;;;;10.85;7.00;;;614.70;2406.40;;;;;;5034858;28;20018;-78
2022/06/29 03:53:14;;;;;;;9.02;6.97;;;614.70;2432.00;;;;;;5035235;28;20042;-77
2022/06/29 03:55:40;;;;;;;12.60;7.10;;;614.70;2406.40;;;;;;5035240;28;20438;-78
2022/06/29 03:58:06;;;;;;;13.02;7.72;;;614.70;2432.00;;;;;;5035308;28;20030;-78
2022/06/29 04:00:32;;;;;;;11.43;8.27;;;614.70;2432.00;;;;;;5035118;28;20075;-78
2022/06/29 04:02:57;;;;;;;8.68;7.50;;;614.70;2432.00;;;;;;5017051;28;20064;-78
2022/06/29 04:05:23;;;;;;;15.05;8.38;;;614.60;2432.00;;;;;;5034743;28;20055;-77
2022/06/29 04:07:49;;;;;;;12.77;8.30;;;614.70;2406.40;;;;;;5035068;28;20037;-77
2022/06/29 04:10:15;;;;;;;13.05;8.82;;;614.80;2406.40;;;;;;5035112;28;20025;-76
2022/06/29 04:12:41;;;;;;;12.25;8.25;;;;;;;;;;5034862;28;20037;-76
2022/06/29 04:15:07;;;;;;;10.35;8.30;;;;;;;;;;5034821;28;20029;-77
2022/06/29 04:17:33;;;;;;;10.45;8.98;;;;;;;;;;5034879;28;20388;-78
2022/06/29 04:19:59;;;;;;;14.52;8.88;;;;;;;;;;5034785;28;20026;-79
2022/06/29 04:22:25;;;;;;;13.13;8.85;;;;;;;;;;5034630;28;20075;-79
2022/06/29 04:24:52;;;;;;;10.65;8.57;;;;;;;;;;5034539;28;20343;-79
2022/06/29 04:27:18;;;;;;;11.40;8.55;;;;;;;;;;5034475;28;20025;-79
2022/06/29 04:29:44;;;;;;;13.25;8.60;;;;;;;;;;5034486;28;20035;-71
2022/06/29 04:32:11;;;;;;;12.48;9.38;;;;;;;;;;5034639;28;20061;-77
2022/06/29 04:34:37;;;;;;;11.30;8.85;;;;;;;;;;5034458;28;20403;-79
2022/06/29 04:37:03;;;;;;;9.55;8.63;;;;;;;;;;5034276;28;20534;-79
2022/06/29 04:39:29;;;;;;;11.40;8.90;;;;;;;;;;5034366;28;20060;-77
2022/06/29 04:41:55;;;;;;;11.48;9.02;;;;;;;;;;5034178;28;20026;-79
2022/06/29 04:44:22;;;;;;;20.48;9.32;;;;;;;;;;5034382;28;20025;-79
2022/06/29 04:46:48;;;;;;;16.90;10.32;;;;;;;;;;5034209;28;20018;-78
2022/06/29 04:49:14;;;;;;;19.30;10.45;;;;;;;;;;5033998;28;20480;-79
2022/06/29 04:51:40;;;;;;;19.50;11.35;;;;;;;;;;5034123;28;20022;-79
2022/06/29 04:54:06;;;;;;;17.40;11.88;;;;;;;;;;5034040;28;20035;-77
2022/06/29 04:56:33;;;;;;;16.63;12.13;;;;;;;;;;5034013;28;20049;-79
2022/06/29 04:58:59;;;;;;;16.67;12.48;;;;;;;;;;5034265;28;20017;-78
2022/06/29 05:01:27;;;;;;;20.65;12.15;;;;;;;;;;5033477;28;20037;-79
2022/06/29 05:03:53;;;;;;;16.40;12.30;;;;;;;;;;5033845;28;20099;-78
2022/06/29 05:06:22;;;;;;;19.60;11.45;;;;;;;;;;5033711;28;20176;-79
2022/06/29 05:08:49;;;;;;;18.52;11.18;;;;;;;;;;5033672;28;20095;-78
2022/06/29 05:11:17;;;;;;;16.95;11.25;;;;;;;;;;5033492;28;20021;-79
2022/06/29 05:13:43;;;;;;;19.13;11.63;;;;;;;;;;5015967;28;20025;-75
2022/06/29 05:16:10;;;;;;;18.95;12.32;;;;;;;;;;5033552;28;20098;-78
2022/06/29 05:18:37;;;;;;;21.52;11.77;;;;;;;;;;5033688;28;20036;-78
2022/06/29 05:21:03;;;;;;;16.27;10.88;;;;;;;;;;5033532;28;20388;-79
2022/06/29 05:23:30;;;;;;;15.60;10.10;;;;;;;;;;5033513;28;20025;-79
2022/06/29 05:25:57;;;;;;;18.70;11.50;;;;;;;;;;5033444;28;20020;-78
2022/06/29 05:28:23;;;;;;;16.98;10.95;;;;;;;;;;5033312;28;20077;-78
2022/06/29 05:30:50;;;;;;;20.52;10.93;;;;;;;;;;5033377;28;20032;-78
2022/06/29 05:33:16;;;;;;;14.30;10.77;;;;;;;;;;5033560;28;20033;-75
2022/06/29 05:35:42;;;;;;;15.45;10.90;;;;;;;;;;5033442;28;20030;-78
2022/06/29 05:38:08;;;;;;;24.08;12.63;;;;;;;;;;5033190;28;20553;-77
2022/06/29 05:40:34;;;;;;;20.95;11.48;;;;;;;;;;5033287;28;20082;-78
2022/06/29 05:43:01;;;;;;;19.95;12.23;;;;;;;;;;5033352;28;20419;-76
2022/06/29 05:45:27;;;;;;;18.90;11.55;;;;;;;;;;5033311;28;20037;-78
2022/06/29 05:47:53;;;;;;;15.52;10.93;;;;;;;;;;5033124;28;20072;-78
2022/06/29 05:50:21;;;;;;;31.52;13.35;;;;;;;;;;5032997;28;20056;-69
2022/06/29 05:52:47;;;;;;;16.98;10.32;;;;;;;;;;5032890;28;20102;-78
2022/06/29 05:55:13;;;;;;;16.15;9.52;;;;;;;;;;5033050;28;20025;-77
2022/06/29 05:57:39;;;;;;;24.15;10.45;;;;;;;;;;5033103;28;20124;-74
2022/06/29 06:00:06;;;;;;;16.17;9.55;;;;;;;;;;5033173;28;20025;-79
2022/06/29 06:02:32;;;;;;;16.33;10.02;;;;;;;;;;5033068;28;20030;-69
2022/06/29 06:04:58;;;;;;;24.38;10.23;;;;;;;;;;5032725;28;20064;-78
2022/06/29 06:07:24;;;;;;;19.33;11.73;;;;;;;;;;5032670;28;20029;-79
2022/06/29 06:09:50;;;;;;;11.73;9.55;;;;;;;;;;5032915;28;20029;-78
2022/06/29 06:12:16;;;;;;;15.68;9.50;;;;;;;;;;5033588;28;20063;-79
2022/06/29 06:14:43;;;;;;;15.63;9.02;;;;;;;;;;5019235;28;20030;-78
2022/06/29 06:17:10;;;;;;;14.07;9.15;;;;;;;;;;5036879;28;20021;-78
2022/06/29 06:19:36;;;;;;;17.77;9.55;;;;;;;;;;5036908;28;20049;-79
2022/06/29 06:22:02;;;;;;;14.13;8.57;;;;;;;;;;5037036;28;20022;-79
2022/06/29 06:24:28;;;;;;;18.70;9.15;;;;;;;;;;5037019;28;20026;-78
2022/06/29 06:26:54;;;;;;;13.65;9.65;;;;;;;;;;5036606;28;20429;-76
2022/06/29 06:29:20;;;;;;;13.55;8.73;;;;;;;;;;5036736;28;20048;-73
2022/06/29 06:31:46;;;;;;;12.23;8.63;;;;;;;;;;5036689;28;20108;-69
2022/06/29 06:34:12;;;;;;;22.98;10.30;;;;;;;;;;5036429;28;20045;-78
2022/06/29 06:36:38;;;;;;;19.73;9.02;;;;;;;;;;5036449;28;20018;-77
2022/06/29 06:39:05;;;;;;;13.35;8.00;;;;;;;;;;5036510;28;20025;-78
2022/06/29 06:41:31;;;;;;;17.38;10.20;;;;;;;;;;5036623;28;20092;-76
2022/06/29 06:43:58;;;;;;;11.02;8.50;;;;;;;;;;5036518;28;20091;-78
2022/06/29 06:46:25;;;;;;;18.65;8.93;;;;;;;;;;5036405;28;20480;-78
2022/06/29 06:48:51;;;;;;;14.75;8.75;;;;;;;;;;5036553;28;20381;-76
2022/06/29 06:51:18;;;;;;;15.52;8.45;;;;;;;;;;5036206;28;20056;-79
2022/06/29 06:53:45;;;;;;;12.82;8.35;;;;;;;;;;5036258;28;20029;-70
2022/06/29 06:56:12;;;;;;;13.57;8.52;;;;;;;;;;5036224;28;20022;-70
2022/06/29 06:58:38;;;;;;;17.33;8.75;;;;;;;;;;5036256;28;20048;-79
2022/06/29 07:01:05;;;;;;;13.73;8.85;;;;;;;;;;5036144;28;20049;-79
2022/06/29 07:03:31;;;;;;;13.38;8.52;;;;;;;;;;5036158;28;20040;-78
2022/06/29 07:05:59;;;;;;;10.00;8.05;;;;;;;;;;5035983;28;20330;-78
2022/06/29 07:08:25;;;;;;;14.68;7.75;;;;;;;;;;5035807;28;20029;-78
2022/06/29 07:10:51;;;;;;;15.20;8.20;;;;;;;;;;5035997;28;20022;-73
2022/06/29 07:13:17;;;;;;;13.65;7.97;;;;;;;;;;5035836;28;20380;-79
2022/06/29 07:15:43;;;;;;;12.57;7.75;;;;;;;;;;5036075;28;20139;-73
2022/06/29 07:18:09;;;;;;;11.80;7.97;;;;;;;;;;5035972;28;20025;-79
2022/06/29 07:20:35;;;;;;;12.05;7.90;;;;;;;;;;5035875;28;20025;-70
2022/06/29 07:23:01;;;;;;;13.02;8.45;;;;;;;;;;5035539;28;20033;-75
2022/06/29 07:25:27;;;;;;;12.18;7.32;;;;;;;;;;5035713;28;20021;-79
2022/06/29 07:27:53;;;;;;;15.52;8.27;;;;;;;;;;5035516;28;20111;-79
2022/06/29 07:30:20;;;;;;;11.00;7.93;;;;;;;;;;5035553;28;20025;-79
2022/06/29 07:32:46;;;;;;;12.63;8.23;;;;;;;;;;5035802;28;20494;-77
2022/06/29 07:35:12;;;;;;;14.20;8.10;;;;;;;;;;5035426;28;20033;-79
2022/06/29 07:37:38;;;;;;;8.68;7.25;;;;;;;;;;5035403;28;20021;-69
2022/06/29 07:40:05;;;;;;;11.43;7.05;;;;;;;;;;5035676;28;20029;-79
2022/06/29 07:42:35;;;;;;;12.70;6.80;;;;;;;;;;5035290;28;20032;-79
2022/06/29 07:45:01;;;;;;;8.93;7.03;;;;;;;;;;5035374;28;20026;-71
2022/06/29 07:47:27;;;;;;;11.00;7.28;;;;;;;;;;5035448;28;20026;-79
2022/06/29 07:49:54;;;;;;;10.88;6.45;;;;;;;;;;5035213;28;20101;-71
2022/06/29 07:52:20;;;;;;;10.98;6.78;;;;;;;;;;5035196;28;20391;-79
2022/06/29 07:54:46;;;;;;;9.82;7.50;;;;;;;;;;5035269;28;20155;-78
2022/06/29 07:57:12;;;;;;;10.23;8.30;;;;;;;;;;5035009;28;20029;-70
2022/06/29 07:59:38;;;;;;;7.85;6.53;;;;;;;;;;5035190;28;20034;-69
2022/06/29 08:02:04;;;;;;;8.88;7.18;;;;;;;;;;5034900;28;20029;-69
2022/06/29 08:04:30;;;;;;;8.57;6.13;;;;;;;;;;5034670;28;20050;-79
2022/06/29 08:06:56;;;;;;;9.40;7.28;;;;;;;;;;5034962;28;20047;-79
2022/06/29 08:09:23;;;;;;;9.10;7.22;;;;;;;;;;5034897;28;20029;-78
2022/06/29 08:11:53;;;;;;;12.23;7.07;;;;;;;;;;5034924;28;20033;-75
2022/06/29 08:14:19;;;;;;;8.38;6.10;;;;;;;;;;5034924;28;20091;-79
2022/06/29 08:16:45;;;;;;;11.30;6.93;;;;;;;;;;5034897;28;20053;-79
2022/06/29 08:19:11;;;;;;;12.50;6.72;;;;;;;;;;5034888;28;20022;-78
2022/06/29 08:21:37;;;;;;;6.55;5.10;;;;;;;;;;5034706;28;20056;-70
2022/06/29 08:24:03;;;;;;;10.77;6.90;;;;;;;;;;5034461;28;20434;-79
2022/06/29 08:26:29;;;;;;;7.68;6.50;;;;;;;;;;5034632;28;20133;-78
2022/06/29 08:28:55;;;;;;;6.88;5.85;;;;;;;;;;5034275;28;20087;-79
2022/06/29 08:31:21;;;;;;;8.38;6.00;;;;;;;;;;5034329;28;20091;-77
2022/06/29 08:33:47;;;;;;;8.77;6.43;;;;;;;;;;5034371;28;20029;-69
2022/06/29 08:36:13;;;;;;;10.70;6.10;;;;;;;;;;5033853;28;20028;-79
2022/06/29 08:38:40;;;;;;;7.03;5.63;;;;;;;;;;5034192;28;20480;-79
2022/06/29 08:41:06;;;;;;;7.70;6.15;;;;;;;;;;5034253;28;20021;-79
2022/06/29 08:43:33;;;;;;;8.02;6.05;;;;;;;;;;5034181;28;20037;-79
2022/06/29 08:45:59;;;;;;;7.20;5.97;;;;;;;;;;5034181;28;20025;-78
2022/06/29 08:48:25;;;;;;;8.32;6.53;;;;;;;;;;5034151;28;20030;-79
2022/06/29 08:50:55;;;;;;;12.25;5.78;;;;;;;;;;5034154;28;20026;-79
2022/06/29 08:53:22;;;;;;;5.68;5.13;;;;;;;;;;5033982;28;20064;-76
2022/06/29 08:55:51;;;;;;;7.55;5.80;;;;;;;;;;5033936;28;20079;-77
2022/06/29 08:58:19;;;;;;;6.68;6.05;;;;;;;;;;5034000;28;20026;-79
2022/06/29 09:00:45;;;;;;;7.50;6.13;;;;;;;;;;5033971;28;20026;-79
2022/06/29 09:03:11;;;;;;;8.13;6.10;;;;;;;;;;5034301;28;20052;-72
2022/06/29 09:05:38;;;;;;;6.32;5.43;;;;;;;;;;5033696;28;20041;-78
2022/06/29 09:08:04;;;;;;;10.43;7.00;;;;;;;;;;5033749;28;20033;-78
2022/06/29 09:10:31;;;;;;;9.10;7.18;;;;;;;;;;5033783;28;20017;-71
2022/06/29 09:13:01;;;;;;;9.40;6.95;;;;;;;;;;5033783;28;20025;-79
2022/06/29 09:15:31;;;;;;;9.43;6.03;;;;;;;;;;5033642;28;20021;-76
2022/06/29 09:17:57;;;;;;;8.93;6.90;;;;;;;;;;5033540;28;20629;-71
2022/06/29 09:20:23;;;;;;;8.88;6.90;;;;;;;;;;5033646;28;20117;-78
2022/06/29 09:22:53;;;;;;;8.55;6.00;;;;;;;;;;5034067;28;20384;-77
2022/06/29 09:25:26;;;;;;;10.13;7.50;;;;;;;;;;5033606;28;20030;-79
2022/06/29 09:27:55;;;;;;;7.20;6.50;;;;;;;;;;5033294;28;20038;-77
2022/06/29 09:30:36;;;;;;;9.52;5.85;;;;;;;;;;5033363;28;20083;-74
2022/06/29 09:33:07;;;;;;;12.25;5.68;;;;;;;;;;5033332;28;20034;-79
2022/06/29 09:35:34;;;;;;;7.15;5.85;;;;;;;;;;5033433;28;20029;-70
2022/06/29 09:38:19;;;;;;;9.38;6.65;;;;;;;;;;5032945;28;20025;-79
2022/06/29 09:41:03;;;;;;;7.63;5.60;;;;;;;;;;5033192;28;20014;-76
2022/06/29 09:43:30;;;;;;;8.43;5.88;;;;;;;;;;5033254;28;20053;-70
2022/06/29 09:45:57;;;;;;;7.25;5.20;;;;;;;;;;5033422;28;20024;-77
2022/06/29 09:48:24;;;;;;;6.20;5.60;;;;;;;;;;5032166;28;20061;-79
2022/06/29 09:50:51;;;;;;;8.68;4.97;;;;;;;;;;5033067;28;20018;-76
2022/06/29 09:53:18;;;;;;;7.85;6.50;;;;;;;;;;5033123;28;20112;-76
2022/06/29 09:55:47;;;;;;;10.27;6.13;;;;;;;;;;5032995;28;20088;-77
2022/06/29 09:58:14;;;;;;;7.53;5.63;;;;;;;;;;5032985;28;20034;-69
2022/06/29 10:03:25;;;;;;;5.93;5.20;;;;;;;;;;5032739;28;20040;-76
2022/06/29 10:06:05;;;;;;;9.07;5.53;;;;;;;;;;5032770;28;20053;-74
2022/06/29 10:08:35;;;;;;;6.65;5.57;;;;;;;;;;5032833;28;20393;-69
2022/06/29 10:13:39;;;;;;;7.73;5.80;;;;;;;;;;5032957;28;20476;-68
2022/06/29 10:13:58;;;;;;;9.63;4.63;;;;;;;;;;5032928;28;20320;-77
2022/06/29 10:16:39;;;;;;;7.70;5.85;;;;;;;;;;5032912;28;20022;-76
2022/06/29 10:19:15;;;;;;;8.52;4.78;;;;;;;;;;5032865;28;20098;-74
2022/06/29 10:21:41;;;;;;;6.30;5.10;;;;;;;;;;5032735;28;20495;-75
2022/06/29 10:24:08;;;;;;;8.13;5.05;;;;;;;;;;5032722;28;20024;-74
2022/06/29 10:26:35;;;;;;;7.63;4.97;;;;;;;;;;5032593;28;20022;-76
2022/06/29 10:29:07;;;;;;;6.05;4.82;;;;;;;;;;5032697;28;20030;-71
2022/06/29 10:31:56;;;;;;;8.00;5.05;;;;;;;;;;5032947;28;20030;-75
2022/06/29 10:34:34;;;;;;;5.38;4.72;;;;;;;;;;5032834;28;20022;-77
2022/06/29 10:37:07;;;;;;;5.45;4.85;;;;;;;;;;5032733;28;20022;-76
2022/06/29 10:39:48;;;;;;;11.07;4.70;;;;;;;;;;5032529;28;20021;-76
2022/06/29 10:45:17;;;;;;;6.03;4.20;;;;;;;;;;5033138;28;20032;-71
2022/06/29 10:48:06;;;;;;;6.55;4.90;;;;;;;;;;5032362;28;20536;-71
2022/06/29 10:50:33;;;;;;;5.13;4.30;;;;;;;;;;5017843;28;20033;-76
2022/06/29 10:53:06;;;;;;;5.90;5.28;;;;;;;;;;5032562;28;20571;-77
2022/06/29 10:55:33;;;;;;;6.18;4.80;;;;;;;;;;5032567;28;20037;-77
2022/06/29 10:58:00;;;;;;;5.45;4.28;;;;;;;;;;5032585;28;20060;-74
2022/06/29 11:00:34;;;;;;;5.95;3.92;;;;;;;;;;5036071;28;20068;-74
2022/06/29 11:03:07;;;;;;;7.55;4.82;;;;;;;;;;5036419;28;20044;-74
2022/06/29 11:05:36;;;;;;;13.05;4.88;;;;;;;;;;5035863;28;20050;-75
2022/06/29 11:13:32;;;;;;;6.00;4.22;;;;;;;;;;5036210;28;20087;-74
2022/06/29 11:15:59;;;;;;;6.18;4.45;;;;;;;;;;5035965;28;20021;-76
2022/06/29 11:18:27;;;;;;;8.18;4.95;;;;;;;;;;5036009;28;20036;-76
2022/06/29 11:20:54;;;;;;;6.85;4.53;;;;;;;;;;5035713;28;20388;-77
2022/06/29 11:23:24;;;;;;;5.43;4.47;;;;;;;;;;5035778;28;20028;-77
2022/06/29 11:25:54;;;;;;;7.63;4.57;;;;;;;;;;5035690;28;20104;-77
2022/06/29 11:28:30;;;;;;;5.00;4.13;;;;;;;;;;5035403;28;20033;-77
2022/06/29 11:31:03;;;;;;;5.88;4.28;;;;;;;;;;5035654;28;20021;-74
2022/06/29 11:33:30;;;;;;;5.90;4.05;;;;;;;;;;5035596;28;20498;-74
2022/06/29 11:35:56;;;;;;;6.07;4.45;;;;;;;;;;5035474;28;20361;-75
2022/06/29 11:38:27;;;;;;;6.80;4.38;;;;;;;;;;5035406;28;20030;-75
2022/06/29 11:40:54;;;;;;;8.85;4.07;;;;;;;;;;5035475;28;20025;-72
2022/06/29 11:43:20;;;;;;;18.02;4.93;;;;;;;;;;5017348;28;20040;-74
2022/06/29 11:45:47;;;;;;;6.10;4.13;;;;;;;;;;5035325;28;20028;-75
2022/06/29 11:48:14;;;;;;;8.07;4.47;;;;;;;;;;5035298;28;20533;-75
2022/06/29 11:50:47;;;;;;;7.40;4.55;;;;;;;;;;5035456;28;20026;-75
2022/06/29 11:53:14;;;;;;;6.10;4.55;;;;;;;;;;5035372;28;20021;-74
2022/06/29 11:55:42;;;;;;;7.25;4.70;;;;;;;;;;5035281;28;20494;-75
2022/06/29 11:58:15;;;;;;;6.38;4.30;;;;;;;;;;5035222;28;20036;-75
2022/06/29 12:00:42;;;;;;;5.40;3.60;;;;;;;;;;5035238;28;20379;-74
2022/06/29 12:03:09;;;;;;;5.72;4.13;;;;;;;;;;5035273;28;20026;-73
2022/06/29 12:05:36;;;;;;;6.75;4.07;;;;;;;;;;5034865;28;20056;-75
2022/06/29 12:08:02;;;;;;;6.03;4.28;;;;;;;;;;5034880;28;20487;-74
2022/06/29 12:10:28;;;;;;;5.30;4.05;;;;;;;;;;5033780;28;20030;-75
2022/06/29 12:12:55;;;;;;;7.72;4.25;;;;;;;;;;5034994;28;20025;-74
2022/06/29 12:15:21;;;;;;;8.68;4.55;;;;;;;;;;5034825;28;20062;-74
2022/06/29 12:17:47;;;;;;;7.75;4.45;;;;;;;;;;5034488;28;20472;-75
2022/06/29 12:20:13;;;;;;;5.82;4.05;;;;;;;;;;5034754;28;20049;-75
2022/06/29 12:22:39;;;;;;;6.85;4.40;;;;;;;;;;5034746;28;20022;-76
2022/06/29 12:25:05;;;;;;;6.22;4.20;;;;;;;;;;5034542;28;20025;-73
2022/06/29 12:27:31;;;;;;;4.72;3.97;;;;;;;;;;5034866;28;20449;-68
2022/06/29 12:29:57;;;;;;;10.30;4.28;;;;;;;;;;5034483;28;20029;-67
2022/06/29 12:32:23;;;;;;;6.05;4.13;;;;;;;;;;5034796;28;20033;-76
2022/06/29 12:34:49;;;;;;;7.35;4.28;;;;;;;;;;5034694;28;20029;-77
2022/06/29 12:37:17;;;;;;;6.88;4.82;;;;;;;;;;5034463;28;20065;-76
2022/06/29 12:39:44;;;;;;;6.45;5.13;;;;;;;;;;5034460;28;20108;-76
2022/06/29 12:42:10;;;;;;;8.45;4.43;;;;;;;;;;5034219;28;20021;-76
2022/06/29 12:44:36;;;;;;;8.90;5.03;;;;;;;;;;5034259;28;20029;-76
2022/06/29 12:47:02;;;;;;;8.82;4.25;;;;;;;;;;5034232;28;20021;-74
2022/06/29 12:49:28;;;;;;;6.70;5.00;;;;;;;;;;5034232;28;20040;-77
2022/06/29 12:51:54;;;;;;;5.50;4.38;;;;;;;;;;5034176;28;20022;-75
2022/06/29 12:54:20;;;;;;;8.93;4.75;;;;;;;;;;5033943;28;20022;-74
2022/06/29 12:56:47;;;;;;;8.02;4.13;;;;;;;;;;5033926;28;20109;-76
2022/06/29 12:59:14;;;;;;;4.82;4.18;;;;;;;;;;5034017;28;20017;-76
2022/06/29 13:01:40;;;;;;;7.32;5.00;;;;;;;;;;5034158;28;20021;-75
2022/06/29 13:04:07;;;;;;;5.03;4.28;;;;;;;;;;5033736;28;20029;-76
2022/06/29 13:06:33;;;;;;;7.28;4.22;;;;;;;;;;5033884;28;20510;-77
2022/06/29 13:08:59;;;;;;;4.88;4.38;;;;;;;;;;5033941;28;20033;-77
2022/06/29 13:11:26;;;;;;;5.75;4.45;;;;;;;;;;5033852;28;20022;-73
2022/06/29 13:13:52;;;;;;;9.50;5.35;;;;;;;;;;5033837;28;20096;-74
2022/06/29 13:16:18;;;;;;;4.93;4.00;;;;;;;;;;5033738;28;20025;-75
2022/06/29 13:18:44;;;;;;;9.63;4.47;;;;;;;;;;5033512;28;20048;-76
2022/06/29 13:21:10;;;;;;;11.35;4.45;;;;;;;;;;5033324;28;20034;-76
2022/06/29 13:23:37;;;;;;;7.45;4.03;;;;;;;;;;5033391;28;20541;-76
2022/06/29 13:26:03;;;;;;;10.43;4.43;;;;;;;;;;5033466;28;20480;-76
2022/06/29 13:28:29;;;;;;;6.50;3.72;;;;;;;;;;5033300;28;20037;-77
2022/06/29 13:30:55;;;;;;;6.78;3.92;;;;;;;;;;5033246;28;20025;-76
2022/06/29 13:33:21;;;;;;;7.35;4.45;;;;;;;;;;5033402;28;20507;-75
2022/06/29 13:35:47;;;;;;;6.70;4.53;;;;;;;;;;5033435;28;20487;-74
2022/06/29 13:38:14;;;;;;;5.57;4.13;;;;;;;;;;5033178;28;20026;-73
2022/06/29 13:40:40;;;;;;;8.23;4.90;;;;;;;;;;5033326;28;20022;-74
2022/06/29 13:43:06;;;;;;;5.78;3.75;;;;;;;;;;5033081;28;20116;-75
2022/06/29 13:45:32;;;;;;;5.68;3.90;;;;;;;;;;5033267;28;20021;-77
2022/06/29 13:47:58;;;;;;;8.82;4.30;;;;;;;;;;5033005;28;20040;-77
2022/06/29 13:50:24;;;;;;;6.20;4.15;;;;;;;;;;5033248;28;20025;-75
2022/06/29 13:52:50;;;;;;;6.97;4.20;;;;;;;;;;5033247;28;20033;-68
2022/06/29 13:55:16;;;;;;;6.63;3.80;;;;;;;;;;5032976;28;20026;-77
2022/06/29 13:57:43;;;;;;;5.45;4.47;;;;;;;;;;5015483;28;20041;-77
2022/06/29 14:00:09;;;;;;;5.82;3.92;;;;;;;;;;5033190;28;20376;-68
2022/06/29 14:02:36;;;;;;;6.65;3.65;;;;;;;;;;5032866;28;20034;-67
2022/06/29 14:05:03;;;;;;;5.13;4.00;;;;;;;;;;5032707;28;20060;-70
2022/06/29 14:07:29;;;;;;;7.13;3.97;;;;;;;;;;5032839;28;20056;-75
2022/06/29 14:09:56;;;;;;;4.30;3.90;;;;;;;;;;5032993;28;20041;-73
2022/06/29 14:12:22;;;;;;;6.05;4.00;;;;;;;;;;5032846;28;20109;-68
2022/06/29 14:14:48;;;;;;;7.53;4.10;;;;;;;;;;5032886;28;20033;-74
2022/06/29 14:17:14;;;;;;;6.65;4.20;;;;;;;;;;5032714;28;20025;-74
2022/06/29 14:19:40;;;;;;;7.70;3.80;;;;;;;;;;5032817;28;20033;-75
2022/06/29 14:22:06;;;;;;;10.70;4.18;;;;;;;;;;5032980;28;20033;-74
2022/06/29 14:24:32;;;;;;;7.40;4.57;;;;;;;;;;5032952;28;20018;-77
2022/06/29 14:27:00;;;;;;;4.60;3.85;;;;;;;;;;5032838;28;20392;-77
2022/06/29 14:29:26;;;;;;;4.22;3.83;;;;;;;;;;5032890;28;20494;-67
2022/06/29 14:31:52;;;;;;;4.70;4.20;;;;;;;;;;5032957;28;20033;-74
2022/06/29 14:34:18;;;;;;;6.38;4.43;;;;;;;;;;5035017;28;20026;-74
2022/06/29 14:36:44;;;;;;;5.22;3.97;;;;;;;;;;5036993;28;20017;-75
2022/06/29 14:39:10;;;;;;;6.90;3.83;;;;;;;;;;5036386;28;20392;-74
2022/06/29 14:41:36;;;;;;;5.25;4.22;;;;;;;;;;5036145;28;20025;-75